sensor_id;sensor_type;location;lat;lon;timestamp;pressure;altitude;pressure_sealevel;temperature;humidity
56070;BME280;41944;52.078;-0.058;2023-04-15T00:00:41;100660.42;;;8.11;100.00
56070;BME280;41944;52.078;-0.058;2023-04-15T00:03:08;100662.06;;;8.04;100.00
56070;BME280;41944;52.078;-0.058;2023-04-15T00:05:35;100663.63;;;8.17;100.00
56070;BME280;41944;52.078;-0.058;2023-04-15T00:08:02;100662.77;;;8.36;100.00
56070;BME280;41944;52.078;-0.058;2023-04-15T00:10:29;100663.89;;;8.25;100.00
56070;BME280;41944;52.078;-0.058;2023-04-15T00:12:56;100663.72;;;8.32;100.00
56070;BME280;41944;52.078;-0.058;2023-04-15T00:15:23;100661.69;;;8.17;100.00
56070;BME280;41944;52.078;-0.058;2023-04-15T00:17:50;100663.31;;;8.24;100.00
56070;BME280;41944;52.078;-0.058;2023-04-15T00:20:17;100662.77;;;8.14;100.00
56070;BME280;41944;52.078;-0.058;2023-04-15T00:22:44;100661.14;;;8.25;100.00
56070;BME280;41944;52.078;-0.058;2023-04-15T00:25:11;100667.70;;;8.24;100.00
56070;BME280;41944;52.078;-0.058;2023-04-15T00:27:38;100667.06;;;8.28;100.00
56070;BME280;41944;52.078;-0.058;2023-04-15T00:30:06;100670.92;;;8.30;100.00
56070;BME280;41944;52.078;-0.058;2023-04-15T00:32:33;100670.69;;;8.08;100.00
56070;BME280;41944;52.078;-0.058;2023-04-15T00:35:00;100676.48;;;8.27;100.00
56070;BME280;41944;52.078;-0.058;2023-04-15T00:37:27;100673.39;;;7.91;100.00
56070;BME280;41944;52.078;-0.058;2023-04-15T00:39:54;100676.04;;;7.96;100.00
56070;BME280;41944;52.078;-0.058;2023-04-15T00:42:22;100679.49;;;8.07;100.00
56070;BME280;41944;52.078;-0.058;2023-04-15T00:44:48;100681.65;;;8.22;100.00
56070;BME280;41944;52.078;-0.058;2023-04-15T00:47:16;100683.84;;;8.28;100.00
56070;BME280;41944;52.078;-0.058;2023-04-15T00:49:43;100682.26;;;8.13;100.00
56070;BME280;41944;52.078;-0.058;2023-04-15T00:52:10;100686.54;;;8.00;100.00
56070;BME280;41944;52.078;-0.058;2023-04-15T00:54:37;100692.50;;;8.08;100.00
56070;BME280;41944;52.078;-0.058;2023-04-15T00:57:04;100695.50;;;8.14;100.00
56070;BME280;41944;52.078;-0.058;2023-04-15T00:59:33;100703.11;;;7.97;100.00
56070;BME280;41944;52.078;-0.058;2023-04-15T01:02:00;100706.13;;;7.93;100.00
56070;BME280;41944;52.078;-0.058;2023-04-15T01:04:27;100707.21;;;7.96;100.00
56070;BME280;41944;52.078;-0.058;2023-04-15T01:06:54;100705.55;;;7.99;100.00
56070;BME280;41944;52.078;-0.058;2023-04-15T01:09:21;100706.90;;;8.03;100.00
56070;BME280;41944;52.078;-0.058;2023-04-15T01:11:48;100709.38;;;7.99;100.00
56070;BME280;41944;52.078;-0.058;2023-04-15T01:14:16;100714.68;;;7.68;100.00
56070;BME280;41944;52.078;-0.058;2023-04-15T01:16:42;100713.91;;;7.93;100.00
56070;BME280;41944;52.078;-0.058;2023-04-15T01:19:10;100715.39;;;8.08;100.00
56070;BME280;41944;52.078;-0.058;2023-04-15T01:21:37;100718.62;;;8.03;100.00
56070;BME280;41944;52.078;-0.058;2023-04-15T01:24:08;100722.61;;;8.10;100.00
56070;BME280;41944;52.078;-0.058;2023-04-15T01:26:37;100726.59;;;7.90;100.00
56070;BME280;41944;52.078;-0.058;2023-04-15T01:29:04;100730.73;;;7.81;100.00
56070;BME280;41944;52.078;-0.058;2023-04-15T01:31:32;100730.06;;;7.74;100.00
56070;BME280;41944;52.078;-0.058;2023-04-15T01:34:00;100735.64;;;7.83;100.00
56070;BME280;41944;52.078;-0.058;2023-04-15T01:36:27;100741.03;;;7.89;100.00
56070;BME280;41944;52.078;-0.058;2023-04-15T01:38:55;100741.69;;;7.94;100.00
56070;BME280;41944;52.078;-0.058;2023-04-15T01:41:25;100743.67;;;7.91;100.00
56070;BME280;41944;52.078;-0.058;2023-04-15T01:43:52;100746.55;;;7.89;100.00
56070;BME280;41944;52.078;-0.058;2023-04-15T01:46:19;100754.74;;;7.66;100.00
56070;BME280;41944;52.078;-0.058;2023-04-15T01:48:46;100754.23;;;7.92;100.00
56070;BME280;41944;52.078;-0.058;2023-04-15T01:51:13;100759.08;;;7.97;100.00
56070;BME280;41944;52.078;-0.058;2023-04-15T01:53:40;100765.10;;;7.95;100.00
56070;BME280;41944;52.078;-0.058;2023-04-15T01:56:07;100774.98;;;7.75;100.00
56070;BME280;41944;52.078;-0.058;2023-04-15T01:58:34;100778.58;;;7.82;100.00
56070;BME280;41944;52.078;-0.058;2023-04-15T02:01:00;100779.02;;;7.97;100.00
56070;BME280;41944;52.078;-0.058;2023-04-15T02:03:28;100780.73;;;7.96;100.00
56070;BME280;41944;52.078;-0.058;2023-04-15T02:05:55;100786.31;;;7.91;100.00
56070;BME280;41944;52.078;-0.058;2023-04-15T02:08:23;100792.63;;;7.93;100.00
56070;BME280;41944;52.078;-0.058;2023-04-15T02:10:50;100793.78;;;7.91;100.00
56070;BME280;41944;52.078;-0.058;2023-04-15T02:13:16;100793.84;;;8.03;100.00
56070;BME280;41944;52.078;-0.058;2023-04-15T02:15:46;100799.15;;;8.01;100.00
56070;BME280;41944;52.078;-0.058;2023-04-15T02:18:14;100805.00;;;8.03;100.00
56070;BME280;41944;52.078;-0.058;2023-04-15T02:20:41;100806.88;;;8.07;100.00
56070;BME280;41944;52.078;-0.058;2023-04-15T02:23:08;100808.98;;;8.22;100.00
56070;BME280;41944;52.078;-0.058;2023-04-15T02:25:35;100815.57;;;8.21;100.00
56070;BME280;41944;52.078;-0.058;2023-04-15T02:28:02;100818.52;;;8.14;100.00
56070;BME280;41944;52.078;-0.058;2023-04-15T02:30:29;100825.39;;;8.14;100.00
56070;BME280;41944;52.078;-0.058;2023-04-15T02:32:56;100829.34;;;8.15;100.00
56070;BME280;41944;52.078;-0.058;2023-04-15T02:35:23;100834.29;;;8.19;100.00
56070;BME280;41944;52.078;-0.058;2023-04-15T02:37:50;100840.50;;;8.14;100.00
56070;BME280;41944;52.078;-0.058;2023-04-15T02:40:18;100842.31;;;8.16;100.00
56070;BME280;41944;52.078;-0.058;2023-04-15T02:42:45;100839.65;;;8.30;100.00
56070;BME280;41944;52.078;-0.058;2023-04-15T02:45:11;100845.15;;;8.19;100.00
56070;BME280;41944;52.078;-0.058;2023-04-15T02:47:39;100841.60;;;8.27;100.00
56070;BME280;41944;52.078;-0.058;2023-04-15T02:50:08;100841.02;;;8.31;100.00
56070;BME280;41944;52.078;-0.058;2023-04-15T02:52:35;100847.71;;;8.21;100.00
56070;BME280;41944;52.078;-0.058;2023-04-15T02:55:03;100846.55;;;8.28;100.00
56070;BME280;41944;52.078;-0.058;2023-04-15T02:57:30;100849.64;;;8.19;100.00
56070;BME280;41944;52.078;-0.058;2023-04-15T02:59:57;100847.75;;;8.36;100.00
56070;BME280;41944;52.078;-0.058;2023-04-15T03:02:25;100850.21;;;8.40;100.00
56070;BME280;41944;52.078;-0.058;2023-04-15T03:04:51;100851.96;;;8.48;100.00
56070;BME280;41944;52.078;-0.058;2023-04-15T03:07:18;100853.10;;;8.41;100.00
56070;BME280;41944;52.078;-0.058;2023-04-15T03:09:46;100861.12;;;8.58;100.00
56070;BME280;41944;52.078;-0.058;2023-04-15T03:12:12;100870.02;;;8.33;100.00
56070;BME280;41944;52.078;-0.058;2023-04-15T03:14:40;100877.02;;;8.40;100.00
56070;BME280;41944;52.078;-0.058;2023-04-15T03:17:07;100873.32;;;8.52;100.00
56070;BME280;41944;52.078;-0.058;2023-04-15T03:19:34;100880.37;;;8.42;100.00
56070;BME280;41944;52.078;-0.058;2023-04-15T03:22:00;100882.03;;;8.36;100.00
56070;BME280;41944;52.078;-0.058;2023-04-15T03:24:27;100890.57;;;8.26;100.00
56070;BME280;41944;52.078;-0.058;2023-04-15T03:26:55;100894.80;;;8.39;100.00
56070;BME280;41944;52.078;-0.058;2023-04-15T03:29:23;100899.21;;;8.36;100.00
56070;BME280;41944;52.078;-0.058;2023-04-15T03:31:51;100904.32;;;8.40;100.00
56070;BME280;41944;52.078;-0.058;2023-04-15T03:34:18;100905.40;;;8.45;100.00
56070;BME280;41944;52.078;-0.058;2023-04-15T03:36:45;100909.28;;;8.25;100.00
56070;BME280;41944;52.078;-0.058;2023-04-15T03:39:12;100914.96;;;8.38;100.00
56070;BME280;41944;52.078;-0.058;2023-04-15T03:41:39;100921.52;;;8.48;100.00
56070;BME280;41944;52.078;-0.058;2023-04-15T03:44:06;100926.29;;;8.45;100.00
56070;BME280;41944;52.078;-0.058;2023-04-15T03:46:33;100929.45;;;8.50;100.00
56070;BME280;41944;52.078;-0.058;2023-04-15T03:49:00;100929.91;;;8.27;100.00
56070;BME280;41944;52.078;-0.058;2023-04-15T03:51:27;100931.80;;;8.43;100.00
56070;BME280;41944;52.078;-0.058;2023-04-15T03:53:55;100939.33;;;8.56;100.00
56070;BME280;41944;52.078;-0.058;2023-04-15T03:56:22;100944.38;;;8.59;100.00
56070;BME280;41944;52.078;-0.058;2023-04-15T03:58:48;100947.72;;;8.53;100.00
56070;BME280;41944;52.078;-0.058;2023-04-15T04:01:15;100954.30;;;8.44;100.00
56070;BME280;41944;52.078;-0.058;2023-04-15T04:03:42;100955.08;;;8.49;100.00
56070;BME280;41944;52.078;-0.058;2023-04-15T04:06:09;100956.25;;;8.37;100.00
56070;BME280;41944;52.078;-0.058;2023-04-15T04:08:36;100960.43;;;8.35;100.00
56070;BME280;41944;52.078;-0.058;2023-04-15T04:11:03;100959.69;;;8.18;100.00
56070;BME280;41944;52.078;-0.058;2023-04-15T04:13:31;100965.51;;;8.29;100.00
56070;BME280;41944;52.078;-0.058;2023-04-15T04:15:58;100967.08;;;8.36;100.00
56070;BME280;41944;52.078;-0.058;2023-04-15T04:18:25;100972.41;;;8.43;100.00
56070;BME280;41944;52.078;-0.058;2023-04-15T04:20:52;100975.09;;;8.31;100.00
56070;BME280;41944;52.078;-0.058;2023-04-15T04:23:19;100977.55;;;8.39;100.00
56070;BME280;41944;52.078;-0.058;2023-04-15T04:25:46;100979.19;;;8.16;100.00
56070;BME280;41944;52.078;-0.058;2023-04-15T04:28:13;100977.80;;;8.01;100.00
56070;BME280;41944;52.078;-0.058;2023-04-15T04:30:40;100985.32;;;7.91;100.00
56070;BME280;41944;52.078;-0.058;2023-04-15T04:33:08;100989.09;;;8.27;100.00
56070;BME280;41944;52.078;-0.058;2023-04-15T04:35:34;100993.35;;;8.16;100.00
56070;BME280;41944;52.078;-0.058;2023-04-15T04:38:01;100996.63;;;8.12;100.00
56070;BME280;41944;52.078;-0.058;2023-04-15T04:40:29;100997.56;;;8.13;100.00
56070;BME280;41944;52.078;-0.058;2023-04-15T04:42:56;101002.86;;;8.30;100.00
56070;BME280;41944;52.078;-0.058;2023-04-15T04:45:23;101003.99;;;8.47;100.00
56070;BME280;41944;52.078;-0.058;2023-04-15T04:47:49;101007.52;;;8.39;100.00
56070;BME280;41944;52.078;-0.058;2023-04-15T04:50:16;101012.71;;;8.33;100.00
56070;BME280;41944;52.078;-0.058;2023-04-15T04:52:43;101016.98;;;8.46;100.00
56070;BME280;41944;52.078;-0.058;2023-04-15T04:55:10;101025.51;;;8.35;100.00
56070;BME280;41944;52.078;-0.058;2023-04-15T04:57:37;101033.64;;;8.41;100.00
56070;BME280;41944;52.078;-0.058;2023-04-15T05:00:05;101039.01;;;8.53;100.00
56070;BME280;41944;52.078;-0.058;2023-04-15T05:02:33;101042.08;;;8.34;100.00
56070;BME280;41944;52.078;-0.058;2023-04-15T05:05:00;101042.40;;;8.26;100.00
56070;BME280;41944;52.078;-0.058;2023-04-15T05:07:27;101046.73;;;8.34;100.00
56070;BME280;41944;52.078;-0.058;2023-04-15T05:09:53;101049.45;;;8.35;100.00
56070;BME280;41944;52.078;-0.058;2023-04-15T05:12:20;101053.60;;;8.30;100.00
56070;BME280;41944;52.078;-0.058;2023-04-15T05:14:47;101063.03;;;8.48;100.00
56070;BME280;41944;52.078;-0.058;2023-04-15T05:17:14;101067.34;;;8.46;100.00
56070;BME280;41944;52.078;-0.058;2023-04-15T05:19:40;101072.05;;;8.40;100.00
56070;BME280;41944;52.078;-0.058;2023-04-15T05:22:08;101076.53;;;8.48;100.00
56070;BME280;41944;52.078;-0.058;2023-04-15T05:24:34;101083.97;;;8.54;100.00
56070;BME280;41944;52.078;-0.058;2023-04-15T05:27:02;101089.99;;;8.49;100.00
56070;BME280;41944;52.078;-0.058;2023-04-15T05:29:29;101097.84;;;8.62;100.00
56070;BME280;41944;52.078;-0.058;2023-04-15T05:31:56;101103.59;;;8.59;100.00
56070;BME280;41944;52.078;-0.058;2023-04-15T05:34:23;101109.97;;;8.68;100.00
56070;BME280;41944;52.078;-0.058;2023-04-15T05:36:50;101111.63;;;8.67;100.00
56070;BME280;41944;52.078;-0.058;2023-04-15T05:39:18;101117.70;;;8.46;100.00
56070;BME280;41944;52.078;-0.058;2023-04-15T05:41:44;101122.03;;;8.51;100.00
56070;BME280;41944;52.078;-0.058;2023-04-15T05:44:11;101126.58;;;8.62;100.00
56070;BME280;41944;52.078;-0.058;2023-04-15T05:46:38;101133.45;;;8.75;100.00
56070;BME280;41944;52.078;-0.058;2023-04-15T05:49:05;101139.98;;;8.65;100.00
56070;BME280;41944;52.078;-0.058;2023-04-15T05:51:31;101144.68;;;8.73;100.00
56070;BME280;41944;52.078;-0.058;2023-04-15T05:53:59;101154.91;;;8.60;100.00
56070;BME280;41944;52.078;-0.058;2023-04-15T05:56:26;101158.79;;;8.57;100.00
56070;BME280;41944;52.078;-0.058;2023-04-15T05:58:53;101165.34;;;8.73;100.00
56070;BME280;41944;52.078;-0.058;2023-04-15T06:01:20;101169.59;;;8.81;100.00
56070;BME280;41944;52.078;-0.058;2023-04-15T06:03:47;101174.91;;;8.80;100.00
56070;BME280;41944;52.078;-0.058;2023-04-15T06:06:14;101182.49;;;8.93;100.00
56070;BME280;41944;52.078;-0.058;2023-04-15T06:08:41;101192.89;;;8.75;100.00
56070;BME280;41944;52.078;-0.058;2023-04-15T06:11:08;101197.56;;;8.62;100.00
56070;BME280;41944;52.078;-0.058;2023-04-15T06:13:35;101201.84;;;8.83;100.00
56070;BME280;41944;52.078;-0.058;2023-04-15T06:16:03;101206.14;;;8.84;100.00
56070;BME280;41944;52.078;-0.058;2023-04-15T06:18:30;101215.10;;;8.96;100.00
56070;BME280;41944;52.078;-0.058;2023-04-15T06:20:56;101222.09;;;9.16;100.00
56070;BME280;41944;52.078;-0.058;2023-04-15T06:23:24;101230.51;;;9.11;100.00
56070;BME280;41944;52.078;-0.058;2023-04-15T06:25:51;101236.72;;;9.11;100.00
56070;BME280;41944;52.078;-0.058;2023-04-15T06:28:18;101244.18;;;9.22;100.00
56070;BME280;41944;52.078;-0.058;2023-04-15T06:30:45;101248.15;;;9.36;100.00
56070;BME280;41944;52.078;-0.058;2023-04-15T06:33:11;101248.79;;;9.19;100.00
56070;BME280;41944;52.078;-0.058;2023-04-15T06:35:38;101251.97;;;9.02;100.00
56070;BME280;41944;52.078;-0.058;2023-04-15T06:38:06;101252.35;;;8.84;100.00
56070;BME280;41944;52.078;-0.058;2023-04-15T06:40:32;101253.57;;;8.96;100.00
56070;BME280;41944;52.078;-0.058;2023-04-15T06:43:00;101257.31;;;9.03;100.00
56070;BME280;41944;52.078;-0.058;2023-04-15T06:45:26;101262.45;;;9.20;100.00
56070;BME280;41944;52.078;-0.058;2023-04-15T06:47:54;101267.34;;;9.08;100.00
56070;BME280;41944;52.078;-0.058;2023-04-15T06:50:20;101278.12;;;8.81;100.00
56070;BME280;41944;52.078;-0.058;2023-04-15T06:52:47;101282.84;;;8.92;100.00
56070;BME280;41944;52.078;-0.058;2023-04-15T06:55:14;101282.51;;;9.12;100.00
56070;BME280;41944;52.078;-0.058;2023-04-15T06:57:41;101288.10;;;9.12;100.00
56070;BME280;41944;52.078;-0.058;2023-04-15T07:00:08;101293.36;;;9.26;100.00
56070;BME280;41944;52.078;-0.058;2023-04-15T07:02:36;101298.12;;;9.33;100.00
56070;BME280;41944;52.078;-0.058;2023-04-15T07:05:05;101301.66;;;9.18;100.00
56070;BME280;41944;52.078;-0.058;2023-04-15T07:07:32;101305.93;;;9.18;100.00
56070;BME280;41944;52.078;-0.058;2023-04-15T07:09:59;101312.06;;;9.05;100.00
56070;BME280;41944;52.078;-0.058;2023-04-15T07:12:26;101320.66;;;9.13;100.00
56070;BME280;41944;52.078;-0.058;2023-04-15T07:14:53;101321.69;;;9.13;100.00
56070;BME280;41944;52.078;-0.058;2023-04-15T07:17:20;101326.16;;;9.19;100.00
56070;BME280;41944;52.078;-0.058;2023-04-15T07:19:47;101329.14;;;9.10;100.00
56070;BME280;41944;52.078;-0.058;2023-04-15T07:22:14;101330.30;;;9.14;100.00
56070;BME280;41944;52.078;-0.058;2023-04-15T07:24:41;101332.18;;;9.02;100.00
56070;BME280;41944;52.078;-0.058;2023-04-15T07:27:08;101337.05;;;9.13;100.00
56070;BME280;41944;52.078;-0.058;2023-04-15T07:29:35;101344.05;;;9.04;100.00
56070;BME280;41944;52.078;-0.058;2023-04-15T07:32:03;101348.95;;;9.11;100.00
56070;BME280;41944;52.078;-0.058;2023-04-15T07:34:30;101351.25;;;8.87;100.00
56070;BME280;41944;52.078;-0.058;2023-04-15T07:36:57;101356.03;;;8.95;100.00
56070;BME280;41944;52.078;-0.058;2023-04-15T07:39:24;101359.44;;;9.11;100.00
56070;BME280;41944;52.078;-0.058;2023-04-15T07:41:51;101365.36;;;9.25;100.00
56070;BME280;41944;52.078;-0.058;2023-04-15T07:44:18;101371.32;;;9.15;100.00
56070;BME280;41944;52.078;-0.058;2023-04-15T07:46:45;101373.56;;;9.11;100.00
56070;BME280;41944;52.078;-0.058;2023-04-15T07:49:12;101378.83;;;9.18;100.00
56070;BME280;41944;52.078;-0.058;2023-04-15T07:51:39;101385.71;;;9.25;100.00
56070;BME280;41944;52.078;-0.058;2023-04-15T07:54:06;101396.00;;;9.30;100.00
56070;BME280;41944;52.078;-0.058;2023-04-15T07:56:34;101398.31;;;9.25;100.00
56070;BME280;41944;52.078;-0.058;2023-04-15T07:59:00;101399.69;;;9.35;100.00
56070;BME280;41944;52.078;-0.058;2023-04-15T08:01:27;101406.38;;;9.19;100.00
56070;BME280;41944;52.078;-0.058;2023-04-15T08:03:54;101412.10;;;9.31;100.00
56070;BME280;41944;52.078;-0.058;2023-04-15T08:06:21;101417.96;;;9.39;100.00
56070;BME280;41944;52.078;-0.058;2023-04-15T08:08:48;101422.31;;;9.53;100.00
56070;BME280;41944;52.078;-0.058;2023-04-15T08:11:16;101433.14;;;9.56;100.00
56070;BME280;41944;52.078;-0.058;2023-04-15T08:13:43;101440.25;;;9.56;100.00
56070;BME280;41944;52.078;-0.058;2023-04-15T08:16:16;101441.06;;;9.59;100.00
56070;BME280;41944;52.078;-0.058;2023-04-15T08:18:44;101447.93;;;9.68;100.00
56070;BME280;41944;52.078;-0.058;2023-04-15T08:21:11;101448.94;;;9.61;100.00
56070;BME280;41944;52.078;-0.058;2023-04-15T08:23:38;101449.76;;;9.75;100.00
56070;BME280;41944;52.078;-0.058;2023-04-15T08:26:05;101454.79;;;9.77;100.00
56070;BME280;41944;52.078;-0.058;2023-04-15T08:28:32;101455.31;;;9.54;100.00
56070;BME280;41944;52.078;-0.058;2023-04-15T08:31:00;101454.15;;;9.78;100.00
56070;BME280;41944;52.078;-0.058;2023-04-15T08:33:27;101455.00;;;9.76;100.00
56070;BME280;41944;52.078;-0.058;2023-04-15T08:35:54;101456.74;;;9.96;100.00
56070;BME280;41944;52.078;-0.058;2023-04-15T08:38:21;101461.24;;;9.97;100.00
56070;BME280;41944;52.078;-0.058;2023-04-15T08:40:49;101470.03;;;10.00;100.00
56070;BME280;41944;52.078;-0.058;2023-04-15T08:43:20;101472.66;;;10.08;100.00
56070;BME280;41944;52.078;-0.058;2023-04-15T08:45:49;101476.61;;;10.26;100.00
56070;BME280;41944;52.078;-0.058;2023-04-15T08:48:18;101482.86;;;10.25;100.00
56070;BME280;41944;52.078;-0.058;2023-04-15T08:50:46;101485.04;;;10.31;100.00
56070;BME280;41944;52.078;-0.058;2023-04-15T08:53:14;101488.87;;;10.31;100.00
56070;BME280;41944;52.078;-0.058;2023-04-15T08:55:42;101501.26;;;10.13;100.00
56070;BME280;41944;52.078;-0.058;2023-04-15T08:58:10;101506.38;;;10.35;100.00
56070;BME280;41944;52.078;-0.058;2023-04-15T09:00:38;101510.94;;;10.55;99.59
56070;BME280;41944;52.078;-0.058;2023-04-15T09:03:06;101514.05;;;10.52;99.06
56070;BME280;41944;52.078;-0.058;2023-04-15T09:05:35;101521.36;;;10.70;99.68
56070;BME280;41944;52.078;-0.058;2023-04-15T09:08:03;101527.55;;;10.87;97.88
56070;BME280;41944;52.078;-0.058;2023-04-15T09:10:31;101531.32;;;10.93;96.41
56070;BME280;41944;52.078;-0.058;2023-04-15T09:12:59;101536.21;;;10.94;96.43
56070;BME280;41944;52.078;-0.058;2023-04-15T09:15:27;101540.70;;;10.60;96.77
56070;BME280;41944;52.078;-0.058;2023-04-15T09:17:54;101542.17;;;11.08;96.16
56070;BME280;41944;52.078;-0.058;2023-04-15T09:20:21;101543.26;;;11.25;96.80
56070;BME280;41944;52.078;-0.058;2023-04-15T09:22:49;101548.31;;;11.52;95.80
56070;BME280;41944;52.078;-0.058;2023-04-15T09:25:32;101550.71;;;11.66;94.55
56070;BME280;41944;52.078;-0.058;2023-04-15T09:28:00;101556.72;;;11.48;91.19
56070;BME280;41944;52.078;-0.058;2023-04-15T09:30:28;101559.99;;;11.46;90.71
56070;BME280;41944;52.078;-0.058;2023-04-15T09:32:56;101561.77;;;11.41;92.66
56070;BME280;41944;52.078;-0.058;2023-04-15T09:35:25;101573.11;;;11.56;92.75
56070;BME280;41944;52.078;-0.058;2023-04-15T09:38:01;101577.58;;;11.46;91.91
56070;BME280;41944;52.078;-0.058;2023-04-15T09:40:31;101581.08;;;11.59;93.19
56070;BME280;41944;52.078;-0.058;2023-04-15T09:42:59;101588.98;;;11.41;91.81
56070;BME280;41944;52.078;-0.058;2023-04-15T09:45:26;101591.78;;;10.95;92.60
56070;BME280;41944;52.078;-0.058;2023-04-15T09:47:53;101594.45;;;11.47;92.37
56070;BME280;41944;52.078;-0.058;2023-04-15T09:50:20;101600.79;;;11.55;90.97
56070;BME280;41944;52.078;-0.058;2023-04-15T09:52:47;101600.84;;;11.70;90.25
56070;BME280;41944;52.078;-0.058;2023-04-15T09:55:16;101603.27;;;11.96;91.60
56070;BME280;41944;52.078;-0.058;2023-04-15T09:57:45;101610.26;;;12.16;93.40
56070;BME280;41944;52.078;-0.058;2023-04-15T10:00:13;101612.40;;;12.41;88.71
56070;BME280;41944;52.078;-0.058;2023-04-15T10:02:40;101617.11;;;12.53;86.52
56070;BME280;41944;52.078;-0.058;2023-04-15T10:05:10;101615.69;;;12.14;84.79
56070;BME280;41944;52.078;-0.058;2023-04-15T10:07:38;101621.30;;;12.00;85.83
56070;BME280;41944;52.078;-0.058;2023-04-15T10:10:07;101622.14;;;11.98;88.40
56070;BME280;41944;52.078;-0.058;2023-04-15T10:12:36;101627.75;;;12.20;87.50
56070;BME280;41944;52.078;-0.058;2023-04-15T10:15:05;101624.10;;;12.34;86.73
56070;BME280;41944;52.078;-0.058;2023-04-15T10:17:33;101630.11;;;12.56;85.09
56070;BME280;41944;52.078;-0.058;2023-04-15T10:20:01;101629.36;;;12.94;85.59
56070;BME280;41944;52.078;-0.058;2023-04-15T10:22:29;101620.63;;;13.15;82.75
56070;BME280;41944;52.078;-0.058;2023-04-15T10:24:58;101625.59;;;13.25;81.09
56070;BME280;41944;52.078;-0.058;2023-04-15T10:27:25;101629.90;;;13.29;82.27
56070;BME280;41944;52.078;-0.058;2023-04-15T10:29:53;101633.81;;;13.43;82.04
56070;BME280;41944;52.078;-0.058;2023-04-15T10:32:24;101636.74;;;13.49;79.41
56070;BME280;41944;52.078;-0.058;2023-04-15T10:34:51;101641.56;;;13.67;78.25
56070;BME280;41944;52.078;-0.058;2023-04-15T10:37:20;101644.71;;;13.57;78.79
56070;BME280;41944;52.078;-0.058;2023-04-15T10:39:48;101645.94;;;13.41;80.78
56070;BME280;41944;52.078;-0.058;2023-04-15T10:42:16;101650.93;;;13.44;78.45
56070;BME280;41944;52.078;-0.058;2023-04-15T10:44:44;101646.68;;;13.40;81.39
56070;BME280;41944;52.078;-0.058;2023-04-15T10:47:16;101647.31;;;13.48;80.75
56070;BME280;41944;52.078;-0.058;2023-04-15T10:49:45;101648.97;;;13.73;78.97
56070;BME280;41944;52.078;-0.058;2023-04-15T10:52:14;101651.32;;;13.70;81.72
56070;BME280;41944;52.078;-0.058;2023-04-15T10:54:42;101657.50;;;13.91;80.52
56070;BME280;41944;52.078;-0.058;2023-04-15T10:57:15;101658.29;;;13.90;79.40
56070;BME280;41944;52.078;-0.058;2023-04-15T11:00:01;101663.96;;;14.09;76.64
56070;BME280;41944;52.078;-0.058;2023-04-15T11:02:51;101659.99;;;14.01;76.45
56070;BME280;41944;52.078;-0.058;2023-04-15T11:05:20;101663.84;;;14.06;75.75
56070;BME280;41944;52.078;-0.058;2023-04-15T11:07:51;101666.19;;;13.90;77.56
56070;BME280;41944;52.078;-0.058;2023-04-15T11:10:52;101670.83;;;14.06;75.88
56070;BME280;41944;52.078;-0.058;2023-04-15T11:13:22;101665.47;;;14.30;75.77
56070;BME280;41944;52.078;-0.058;2023-04-15T11:15:49;101677.89;;;14.34;73.41
56070;BME280;41944;52.078;-0.058;2023-04-15T11:18:17;101687.00;;;14.16;73.46
56070;BME280;41944;52.078;-0.058;2023-04-15T11:20:46;101683.85;;;13.84;74.55
56070;BME280;41944;52.078;-0.058;2023-04-15T11:23:14;101683.23;;;13.94;76.55
56070;BME280;41944;52.078;-0.058;2023-04-15T11:25:41;101690.00;;;14.24;75.56
56070;BME280;41944;52.078;-0.058;2023-04-15T11:28:09;101688.66;;;14.41;72.72
56070;BME280;41944;52.078;-0.058;2023-04-15T11:30:37;101687.64;;;14.48;74.29
56070;BME280;41944;52.078;-0.058;2023-04-15T11:33:05;101686.00;;;14.76;74.51
56070;BME280;41944;52.078;-0.058;2023-04-15T11:35:34;101684.56;;;15.02;72.26
56070;BME280;41944;52.078;-0.058;2023-04-15T11:38:02;101688.92;;;15.32;70.58
56070;BME280;41944;52.078;-0.058;2023-04-15T11:40:31;101686.56;;;15.28;68.59
56070;BME280;41944;52.078;-0.058;2023-04-15T11:43:07;101680.05;;;15.62;67.17
56070;BME280;41944;52.078;-0.058;2023-04-15T11:45:35;101688.24;;;15.78;67.72
56070;BME280;41944;52.078;-0.058;2023-04-15T11:48:05;101692.20;;;15.58;68.63
56070;BME280;41944;52.078;-0.058;2023-04-15T11:50:33;101698.52;;;15.34;70.16
56070;BME280;41944;52.078;-0.058;2023-04-15T11:53:01;101700.76;;;15.18;68.77
56070;BME280;41944;52.078;-0.058;2023-04-15T11:55:29;101703.14;;;15.13;70.73
56070;BME280;41944;52.078;-0.058;2023-04-15T11:58:13;101700.60;;;15.12;69.03
56070;BME280;41944;52.078;-0.058;2023-04-15T12:00:47;101699.84;;;15.22;71.04
56070;BME280;41944;52.078;-0.058;2023-04-15T12:03:20;101706.62;;;15.17;68.71
56070;BME280;41944;52.078;-0.058;2023-04-15T12:06:04;101707.29;;;15.21;66.15
56070;BME280;41944;52.078;-0.058;2023-04-15T12:08:49;101714.40;;;15.46;65.38
56070;BME280;41944;52.078;-0.058;2023-04-15T12:11:17;101721.03;;;15.64;64.10
56070;BME280;41944;52.078;-0.058;2023-04-15T12:13:46;101724.13;;;15.64;64.10
56070;BME280;41944;52.078;-0.058;2023-04-15T12:16:16;101726.33;;;15.38;65.55
56070;BME280;41944;52.078;-0.058;2023-04-15T12:18:44;101722.69;;;15.21;65.16
56070;BME280;41944;52.078;-0.058;2023-04-15T12:21:13;101728.80;;;15.15;66.48
56070;BME280;41944;52.078;-0.058;2023-04-15T12:23:47;101730.07;;;15.39;67.22
56070;BME280;41944;52.078;-0.058;2023-04-15T12:26:14;101734.19;;;15.71;64.94
56070;BME280;41944;52.078;-0.058;2023-04-15T12:28:41;101735.83;;;15.89;66.39
56070;BME280;41944;52.078;-0.058;2023-04-15T12:31:08;101732.60;;;15.90;65.62
56070;BME280;41944;52.078;-0.058;2023-04-15T12:33:36;101742.17;;;15.86;62.81
56070;BME280;41944;52.078;-0.058;2023-04-15T12:36:03;101740.58;;;15.70;63.09
56070;BME280;41944;52.078;-0.058;2023-04-15T12:38:31;101740.83;;;15.56;63.12
56070;BME280;41944;52.078;-0.058;2023-04-15T12:40:58;101738.69;;;15.70;63.76
56070;BME280;41944;52.078;-0.058;2023-04-15T12:43:25;101742.16;;;15.77;62.70